createdAt,value
2023-03-08T00:00:29.594Z,3.47
2023-03-08T00:01:02.050Z,3.60
2023-03-08T00:01:36.884Z,3.90
2023-03-08T00:02:09.110Z,3.20
2023-03-08T00:02:41.360Z,3.30
2023-03-08T00:03:17.393Z,3.43
2023-03-08T00:03:52.111Z,3.43
2023-03-08T00:04:24.498Z,3.30
2023-03-08T00:04:59.970Z,3.80
2023-03-08T00:05:32.398Z,3.47
2023-03-08T00:06:05.150Z,3.60
2023-03-08T00:06:40.074Z,3.03
2023-03-08T00:07:12.317Z,3.70
2023-03-08T00:07:44.557Z,3.20
2023-03-08T00:08:20.492Z,3.43
2023-03-08T00:08:55.614Z,3.50
2023-03-08T00:09:27.872Z,3.67
2023-03-08T00:10:02.765Z,3.63
2023-03-08T00:10:35.103Z,3.57
2023-03-08T00:11:07.995Z,3.00
2023-03-08T00:11:42.874Z,3.70
2023-03-08T00:12:19.426Z,4.20
2023-03-08T00:12:51.706Z,3.50
2023-03-08T00:13:26.621Z,3.40
2023-03-08T00:13:58.916Z,3.43
2023-03-08T00:14:31.212Z,3.27
2023-03-08T00:15:06.447Z,3.67
2023-03-08T00:15:38.895Z,4.10
2023-03-08T00:16:13.234Z,3.93
2023-03-08T00:16:48.097Z,3.73
2023-03-08T00:17:20.437Z,3.10
2023-03-08T00:17:52.718Z,3.60
2023-03-08T00:18:27.681Z,3.60
2023-03-08T00:18:59.905Z,3.83
2023-03-08T00:19:32.197Z,4.00
2023-03-08T00:20:08.668Z,3.63
2023-03-08T00:20:40.897Z,3.87
2023-03-08T00:21:14.776Z,4.33
2023-03-08T00:21:49.613Z,3.23
2023-03-08T00:22:21.845Z,4.13
2023-03-08T00:22:54.077Z,3.73
2023-03-08T00:23:28.941Z,3.87
2023-03-08T00:24:01.176Z,3.73
2023-03-08T00:24:36.036Z,3.83
2023-03-08T00:25:09.844Z,3.33
2023-03-08T00:25:44.657Z,3.60
2023-03-08T00:26:16.915Z,3.30
2023-03-08T00:26:49.145Z,3.70
2023-03-08T00:27:26.588Z,4.00
2023-03-08T00:27:58.967Z,3.67
2023-03-08T00:28:31.647Z,3.43
2023-03-08T00:29:06.846Z,2.70
2023-03-08T00:29:39.318Z,3.63
2023-03-08T00:30:13.227Z,3.37
2023-03-08T00:30:45.547Z,3.97
2023-03-08T00:31:20.456Z,3.23
2023-03-08T00:31:52.747Z,3.57
2023-03-08T00:32:25.926Z,4.20
2023-03-08T00:33:00.800Z,3.43
2023-03-08T00:33:33.672Z,3.80
2023-03-08T00:34:06.063Z,3.63
2023-03-08T00:34:46.347Z,3.70
2023-03-08T00:35:20.067Z,3.77
2023-03-08T00:35:56.748Z,3.60
2023-03-08T00:36:31.653Z,3.17
2023-03-08T00:37:03.893Z,3.70
2023-03-08T00:37:36.145Z,3.47
2023-03-08T00:38:08.383Z,3.63
2023-03-08T00:38:43.250Z,4.03
2023-03-08T00:39:16.610Z,3.50
2023-03-08T00:39:51.677Z,3.70
2023-03-08T00:40:26.553Z,3.70
2023-03-08T00:40:58.829Z,3.90
2023-03-08T00:41:31.165Z,3.10
2023-03-08T00:42:03.501Z,4.17
2023-03-08T00:42:41.923Z,3.73
2023-03-08T00:43:14.158Z,3.53
2023-03-08T00:43:46.572Z,3.63
2023-03-08T00:44:21.456Z,3.40
2023-03-08T00:44:53.723Z,4.07
2023-03-08T00:45:25.995Z,3.40
2023-03-08T00:46:01.049Z,3.57
2023-03-08T00:46:34.229Z,4.30
2023-03-08T00:47:06.480Z,3.73
2023-03-08T00:47:41.313Z,3.67
2023-03-08T00:48:13.587Z,3.30
2023-03-08T00:48:46.004Z,3.37
2023-03-08T00:49:23.204Z,3.97
2023-03-08T00:49:56.605Z,3.70
2023-03-08T00:50:28.832Z,3.33
2023-03-08T00:51:03.992Z,3.57
2023-03-08T00:51:36.259Z,3.30
2023-03-08T00:52:08.720Z,4.10
2023-03-08T00:52:44.900Z,3.90
2023-03-08T00:53:19.011Z,3.67
2023-03-08T00:53:52.041Z,3.40
2023-03-08T00:54:26.916Z,3.53
2023-03-08T00:54:59.258Z,3.70
2023-03-08T00:55:31.513Z,3.90
2023-03-08T00:56:06.658Z,3.70
2023-03-08T00:56:38.904Z,3.70
2023-03-08T00:57:11.397Z,3.60
2023-03-08T00:57:48.859Z,3.70
2023-03-08T00:58:21.601Z,3.83
2023-03-08T00:58:56.483Z,3.20
2023-03-08T00:59:28.932Z,3.63
2023-03-08T01:00:02.704Z,3.80
2023-03-08T01:00:38.107Z,3.10
2023-03-08T01:01:14.432Z,3.73
2023-03-08T01:01:46.818Z,3.23
2023-03-08T01:02:22.252Z,3.43
2023-03-08T01:02:54.949Z,3.60
2023-03-08T01:03:27.455Z,3.20
2023-03-08T01:04:04.700Z,3.70
2023-03-08T01:04:36.997Z,2.87
2023-03-08T01:05:10.240Z,3.83
2023-03-08T01:05:43.372Z,3.60
2023-03-08T01:06:18.613Z,3.73
2023-03-08T01:06:50.872Z,3.53
2023-03-08T01:07:24.140Z,3.30
2023-03-08T01:07:59.073Z,3.50
2023-03-08T01:08:31.370Z,3.70
2023-03-08T01:09:04.490Z,3.30
2023-03-08T01:09:39.312Z,3.43
2023-03-08T01:10:12.628Z,3.90
2023-03-08T01:10:47.865Z,3.63
2023-03-08T01:11:24.658Z,3.33
2023-03-08T01:11:56.917Z,3.80
2023-03-08T01:12:29.158Z,3.53
2023-03-08T01:13:07.761Z,3.33
2023-03-08T01:13:40.031Z,3.80
2023-03-08T01:14:15.677Z,3.57
2023-03-08T01:14:47.921Z,2.90
2023-03-08T01:15:20.158Z,3.40
2023-03-08T01:15:55.018Z,3.30
2023-03-08T01:16:29.754Z,3.53
2023-03-08T01:17:03.694Z,3.20
2023-03-08T01:17:38.970Z,4.00
2023-03-08T01:18:11.627Z,3.20
2023-03-08T01:18:43.924Z,3.37
2023-03-08T01:19:18.814Z,3.40
2023-03-08T01:19:51.061Z,3.90
2023-03-08T01:20:23.709Z,3.30
2023-03-08T01:20:57.802Z,3.77
2023-03-08T01:21:34.077Z,3.20
2023-03-08T01:22:06.379Z,3.13
2023-03-08T01:22:38.669Z,3.40
2023-03-08T01:23:13.836Z,3.80
2023-03-08T01:23:46.128Z,3.27
2023-03-08T01:24:18.401Z,3.63
2023-03-08T01:24:53.722Z,3.17
2023-03-08T01:25:26.026Z,3.07
2023-03-08T01:25:59.682Z,3.43
2023-03-08T01:26:34.520Z,3.67
2023-03-08T01:27:06.855Z,3.23
2023-03-08T01:27:39.113Z,3.53
2023-03-08T01:28:16.594Z,3.70
2023-03-08T01:28:49.320Z,3.47
2023-03-08T01:29:21.619Z,3.60
2023-03-08T01:29:56.510Z,3.37
2023-03-08T01:30:29.619Z,3.70
2023-03-08T01:31:03.400Z,3.20
2023-03-08T01:31:38.237Z,3.30
2023-03-08T01:32:11.033Z,3.70
2023-03-08T01:32:43.357Z,3.23
2023-03-08T01:33:18.193Z,3.40
2023-03-08T01:33:50.615Z,3.50
2023-03-08T01:34:22.901Z,3.73
2023-03-08T01:35:02.190Z,4.00
2023-03-08T01:35:34.415Z,3.00
2023-03-08T01:36:09.053Z,3.90
2023-03-08T01:36:43.922Z,3.77
2023-03-08T01:37:16.304Z,3.70
2023-03-08T01:37:53.477Z,3.50
2023-03-08T01:38:29.077Z,3.60
2023-03-08T01:39:01.553Z,3.57
2023-03-08T01:39:34.038Z,3.43
2023-03-08T01:40:08.769Z,3.30
2023-03-08T01:40:43.599Z,3.70
2023-03-08T01:41:17.475Z,3.20
2023-03-08T01:41:49.820Z,3.53
2023-03-08T01:42:24.676Z,3.37
2023-03-08T01:42:57.021Z,2.90
2023-03-08T01:43:34.315Z,4.03
2023-03-08T01:44:12.513Z,4.00
2023-03-08T01:44:52.585Z,3.60
2023-03-08T01:45:55.424Z,3.37
2023-03-08T01:46:31.903Z,4.00
2023-03-08T01:47:13.624Z,3.17
2023-03-08T01:47:54.413Z,3.57
2023-03-08T01:48:36.888Z,3.53
2023-03-08T01:49:14.250Z,3.20
2023-03-08T01:49:49.231Z,3.30
2023-03-08T01:50:21.680Z,4.17
2023-03-08T01:50:53.976Z,3.07
2023-03-08T01:51:35.178Z,3.10
2023-03-08T01:52:09.789Z,3.10
2023-03-08T01:52:48.710Z,3.80
2023-03-08T01:53:21.274Z,3.70
2023-03-08T01:53:53.672Z,3.67
2023-03-08T01:54:32.389Z,3.37
2023-03-08T01:55:08.332Z,3.20
2023-03-08T01:55:40.609Z,3.30
2023-03-08T01:56:14.285Z,3.47
2023-03-08T01:56:50.934Z,3.30
2023-03-08T01:57:25.992Z,3.30
2023-03-08T01:57:58.548Z,3.20
2023-03-08T01:58:34.249Z,3.27
2023-03-08T01:59:09.926Z,3.40
2023-03-08T01:59:43.251Z,3.17
2023-03-08T02:00:17.767Z,3.40
2023-03-08T02:00:54.725Z,3.50
2023-03-08T02:01:27.154Z,3.70
2023-03-08T02:02:03.023Z,3.23
2023-03-08T02:02:43.612Z,3.03
2023-03-08T02:03:16.733Z,3.20
2023-03-08T02:03:49.380Z,3.50
2023-03-08T02:04:26.528Z,3.00
2023-03-08T02:04:58.958Z,2.77
2023-03-08T02:05:33.029Z,3.10
2023-03-08T02:06:17.346Z,3.57
2023-03-08T02:06:49.606Z,3.47
2023-03-08T02:07:26.494Z,3.60
2023-03-08T02:08:01.581Z,3.60
2023-03-08T02:08:38.030Z,3.17
2023-03-08T02:09:10.344Z,3.00
2023-03-08T02:09:45.356Z,4.13
2023-03-08T02:10:18.199Z,2.83
2023-03-08T02:10:50.916Z,2.93
2023-03-08T02:11:26.871Z,3.60
2023-03-08T02:12:04.991Z,2.80
2023-03-08T02:12:38.148Z,3.60
2023-03-08T02:13:11.446Z,3.30
2023-03-08T02:13:53.024Z,3.27
2023-03-08T02:14:25.660Z,3.30
2023-03-08T02:14:59.020Z,3.30
2023-03-08T02:15:32.259Z,3.17
2023-03-08T02:16:08.457Z,3.23
2023-03-08T02:16:40.769Z,3.00
2023-03-08T02:17:15.857Z,3.30
2023-03-08T02:17:48.448Z,2.93
2023-03-08T02:18:20.728Z,3.30
2023-03-08T02:19:00.481Z,3.00
2023-03-08T02:19:39.471Z,3.50
2023-03-08T02:20:14.560Z,2.93
2023-03-08T02:20:49.426Z,2.80
2023-03-08T02:21:22.368Z,2.93
2023-03-08T02:21:54.599Z,3.60
2023-03-08T02:22:29.612Z,3.03
2023-03-08T02:23:11.844Z,2.70
2023-03-08T02:23:46.512Z,3.23
2023-03-08T02:24:22.929Z,3.50
2023-03-08T02:24:55.167Z,3.20
2023-03-08T02:25:27.951Z,3.70
2023-03-08T02:26:06.057Z,3.60
2023-03-08T02:26:38.343Z,3.10
2023-03-08T02:27:14.158Z,3.60
2023-03-08T02:27:49.264Z,3.40
2023-03-08T02:28:22.468Z,3.30
2023-03-08T02:28:54.695Z,2.80
2023-03-08T02:29:29.557Z,2.77
2023-03-08T02:30:03.780Z,3.30
2023-03-08T02:30:37.773Z,3.27
2023-03-08T02:31:12.707Z,3.57
2023-03-08T02:31:45.021Z,3.00
2023-03-08T02:32:17.281Z,3.27
2023-03-08T02:32:52.114Z,3.37
2023-03-08T02:33:24.782Z,3.07
2023-03-08T02:33:57.020Z,3.10
2023-03-08T02:34:35.178Z,3.30
2023-03-08T02:35:08.153Z,3.10
2023-03-08T02:35:42.852Z,3.30
2023-03-08T02:36:19.189Z,3.83
2023-03-08T02:36:51.475Z,3.30
2023-03-08T02:37:23.793Z,3.03
2023-03-08T02:37:56.216Z,2.90
2023-03-08T02:38:34.848Z,3.23
2023-03-08T02:39:07.104Z,3.10
2023-03-08T02:39:39.340Z,3.37
2023-03-08T02:40:15.708Z,3.50
2023-03-08T02:40:51.522Z,3.17
2023-03-08T02:41:23.874Z,2.80
2023-03-08T02:41:58.728Z,3.80
2023-03-08T02:42:30.964Z,3.30
2023-03-08T02:43:03.232Z,3.30
2023-03-08T02:43:38.712Z,3.20
2023-03-08T02:44:11.778Z,2.97
2023-03-08T02:44:44.134Z,3.70
2023-03-08T02:45:19.070Z,3.53
2023-03-08T02:45:51.520Z,3.43
2023-03-08T02:46:23.795Z,3.50
2023-03-08T02:46:58.928Z,3.00
2023-03-08T02:47:31.272Z,3.90
2023-03-08T02:48:05.134Z,3.40
2023-03-08T02:48:39.976Z,3.23
2023-03-08T02:49:12.226Z,3.33
2023-03-08T02:49:44.488Z,3.00
2023-03-08T02:50:17.290Z,3.37
2023-03-08T02:50:52.940Z,3.53
2023-03-08T02:51:25.307Z,3.00
2023-03-08T02:52:00.274Z,3.47
2023-03-08T02:52:32.597Z,3.40
2023-03-08T02:53:04.900Z,3.27
2023-03-08T02:53:43.455Z,3.70
2023-03-08T02:54:16.994Z,3.57
2023-03-08T02:54:49.956Z,3.10
2023-03-08T02:55:22.372Z,2.83
2023-03-08T02:55:57.488Z,3.50
2023-03-08T02:56:29.741Z,3.53
2023-03-08T02:57:01.982Z,3.10
2023-03-08T02:57:37.494Z,3.83
2023-03-08T02:58:11.204Z,3.60
2023-03-08T02:58:46.051Z,3.60
2023-03-08T02:59:18.320Z,3.70
2023-03-08T02:59:50.925Z,3.33
2023-03-08T03:00:25.900Z,3.17
2023-03-08T03:00:58.233Z,3.20
2023-03-08T03:01:30.507Z,3.27
2023-03-08T03:02:04.607Z,3.40
2023-03-08T03:02:39.541Z,3.53
2023-03-08T03:03:11.788Z,3.50
2023-03-08T03:03:44.069Z,3.33
2023-03-08T03:04:20.249Z,3.60
2023-03-08T03:04:53.082Z,3.57
2023-03-08T03:05:25.608Z,3.60
2023-03-08T03:06:00.513Z,3.20
2023-03-08T03:06:37.355Z,3.73
2023-03-08T03:07:09.903Z,3.67
2023-03-08T03:07:46.171Z,3.90
2023-03-08T03:08:22.725Z,4.00
2023-03-08T03:08:57.585Z,3.43
2023-03-08T03:09:30.945Z,3.73
2023-03-08T03:10:06.253Z,3.17
2023-03-08T03:10:42.008Z,3.60
2023-03-08T03:11:14.416Z,3.97
2023-03-08T03:11:49.287Z,3.60
2023-03-08T03:12:21.660Z,3.83
2023-03-08T03:12:54.223Z,3.80
2023-03-08T03:13:33.105Z,3.80
2023-03-08T03:14:05.515Z,4.03
2023-03-08T03:14:43.486Z,3.53
2023-03-08T03:15:18.415Z,3.90
2023-03-08T03:15:54.089Z,3.13
2023-03-08T03:16:30.201Z,3.43
2023-03-08T03:17:02.455Z,4.30
2023-03-08T03:17:36.835Z,3.77
2023-03-08T03:18:11.689Z,3.30
2023-03-08T03:18:43.962Z,3.70
2023-03-08T03:19:16.221Z,4.03
2023-03-08T03:19:51.085Z,3.63
2023-03-08T03:20:23.323Z,3.87
2023-03-08T03:20:55.641Z,3.90
2023-03-08T03:21:30.531Z,3.90
2023-03-08T03:22:02.814Z,4.07
2023-03-08T03:22:36.290Z,3.67
2023-03-08T03:23:12.614Z,3.90
2023-03-08T03:23:59.723Z,4.47
2023-03-08T03:24:46.035Z,3.57
2023-03-08T03:25:21.070Z,4.00
2023-03-08T03:25:54.403Z,4.03
2023-03-08T03:26:27.200Z,4.00
2023-03-08T03:27:04.373Z,4.23
2023-03-08T03:27:39.908Z,3.70
2023-03-08T03:28:12.644Z,4.10
2023-03-08T03:28:48.326Z,4.10
2023-03-08T03:29:20.973Z,3.70
2023-03-08T03:29:57.477Z,4.60
2023-03-08T03:30:32.440Z,4.17
2023-03-08T03:31:08.105Z,3.67
2023-03-08T03:31:40.492Z,4.10
2023-03-08T03:32:15.740Z,3.57
2023-03-08T03:32:48.220Z,3.90
2023-03-08T03:33:25.337Z,4.00
2023-03-08T03:34:00.644Z,3.50
2023-03-08T03:34:34.117Z,3.80
2023-03-08T03:35:07.460Z,3.80
2023-03-08T03:35:42.975Z,3.83
2023-03-08T03:36:17.573Z,4.60
2023-03-08T03:36:50.223Z,4.30
2023-03-08T03:37:25.220Z,4.00
2023-03-08T03:37:57.470Z,4.07
2023-03-08T03:38:30.065Z,4.30
2023-03-08T03:39:07.601Z,4.20
2023-03-08T03:39:42.925Z,3.43
2023-03-08T03:40:18.724Z,4.20
2023-03-08T03:41:03.835Z,4.13
2023-03-08T03:41:36.780Z,3.90
2023-03-08T03:42:18.009Z,3.67
2023-03-08T03:42:59.846Z,4.13
2023-03-08T03:43:32.274Z,4.47
2023-03-08T03:44:05.764Z,4.17
2023-03-08T03:44:42.090Z,3.67
2023-03-08T03:45:18.821Z,4.30
2023-03-08T03:45:56.055Z,4.37
2023-03-08T03:46:31.676Z,4.50
2023-03-08T03:47:05.215Z,4.17
2023-03-08T03:47:40.430Z,3.80
2023-03-08T03:48:17.308Z,3.47
2023-03-08T03:48:49.550Z,4.07
2023-03-08T03:49:28.349Z,4.17
2023-03-08T03:50:00.655Z,3.97
2023-03-08T03:50:37.366Z,3.60
2023-03-08T03:51:18.981Z,3.70
2023-03-08T03:51:55.219Z,4.17
2023-03-08T03:52:35.936Z,4.03
2023-03-08T03:53:13.223Z,4.00
2023-03-08T03:53:46.514Z,4.63
2023-03-08T03:54:22.481Z,4.10
2023-03-08T03:54:57.498Z,4.00
2023-03-08T03:55:30.439Z,4.37
2023-03-08T03:56:05.112Z,4.00
2023-03-08T03:56:40.710Z,4.30
2023-03-08T03:57:13.192Z,3.87
2023-03-08T03:57:47.672Z,4.20
2023-03-08T03:58:25.401Z,4.23
2023-03-08T03:58:57.717Z,4.50
2023-03-08T03:59:33.352Z,3.80
2023-03-08T04:00:10.389Z,4.40
2023-03-08T04:00:56.341Z,4.80
2023-03-08T04:01:37.961Z,4.00
2023-03-08T04:02:23.573Z,4.30
2023-03-08T04:03:04.665Z,4.30
2023-03-08T04:03:38.729Z,3.97
2023-03-08T04:04:11.511Z,4.43
2023-03-08T04:04:52.233Z,4.50
2023-03-08T04:05:28.580Z,3.90
2023-03-08T04:06:07.067Z,5.00
2023-03-08T04:06:42.925Z,4.67
2023-03-08T04:07:19.028Z,4.40
2023-03-08T04:08:00.016Z,4.37
2023-03-08T04:08:42.123Z,4.20
2023-03-08T04:09:18.365Z,4.77
2023-03-08T04:10:03.431Z,4.80
2023-03-08T04:10:37.117Z,4.43
2023-03-08T04:11:10.929Z,4.40
2023-03-08T04:11:45.879Z,4.30
2023-03-08T04:12:22.487Z,4.40
2023-03-08T04:12:55.455Z,4.43
2023-03-08T04:13:30.804Z,4.73
2023-03-08T04:14:03.526Z,4.23
2023-03-08T04:14:36.170Z,5.30
2023-03-08T04:15:12.615Z,5.07
2023-03-08T04:15:44.864Z,4.97
2023-03-08T04:16:20.537Z,4.93
2023-03-08T04:16:55.785Z,4.30
2023-03-08T04:17:34.466Z,4.60
2023-03-08T04:18:06.998Z,4.80
2023-03-08T04:18:43.502Z,5.00
2023-03-08T04:19:15.901Z,4.30
2023-03-08T04:19:57.231Z,4.83
2023-03-08T04:20:29.540Z,4.50
2023-03-08T04:21:04.729Z,4.30
2023-03-08T04:21:39.812Z,4.30
2023-03-08T04:22:12.303Z,4.77
2023-03-08T04:22:50.751Z,4.77
2023-03-08T04:23:32.109Z,4.67
2023-03-08T04:24:05.334Z,4.80
2023-03-08T04:24:40.386Z,4.47
2023-03-08T04:25:20.464Z,4.60
2023-03-08T04:26:02.205Z,5.40
2023-03-08T04:26:34.897Z,4.80
2023-03-08T04:27:07.133Z,4.57
2023-03-08T04:27:41.959Z,5.10
2023-03-08T04:28:14.383Z,5.03
2023-03-08T04:28:46.790Z,4.67
2023-03-08T04:29:21.740Z,5.00
2023-03-08T04:29:54.695Z,4.43
2023-03-08T04:30:30.079Z,4.80
2023-03-08T04:31:15.278Z,5.03
2023-03-08T04:31:47.981Z,4.80
2023-03-08T04:32:23.475Z,4.90
2023-03-08T04:33:03.619Z,4.47
2023-03-08T04:33:44.345Z,5.03
2023-03-08T04:34:19.304Z,4.80
2023-03-08T04:34:54.489Z,5.00
2023-03-08T04:35:29.808Z,4.57
2023-03-08T04:36:05.670Z,4.40
2023-03-08T04:36:40.680Z,4.23
2023-03-08T04:37:14.309Z,4.40
2023-03-08T04:37:49.855Z,4.50
2023-03-08T04:38:26.496Z,4.80
2023-03-08T04:39:01.522Z,4.80
2023-03-08T04:39:34.939Z,4.87
2023-03-08T04:40:13.124Z,4.70
2023-03-08T04:41:06.352Z,4.63
2023-03-08T04:41:52.319Z,4.87
2023-03-08T04:42:31.843Z,4.43
2023-03-08T04:43:04.399Z,4.57
2023-03-08T04:43:48.822Z,4.70
2023-03-08T04:44:23.553Z,4.83
2023-03-08T04:45:00.468Z,4.80
2023-03-08T04:45:33.071Z,4.80
2023-03-08T04:46:09.167Z,5.00
2023-03-08T04:46:46.377Z,4.50
2023-03-08T04:47:25.292Z,5.20
2023-03-08T04:47:57.547Z,4.60
2023-03-08T04:48:33.576Z,5.00
2023-03-08T04:49:06.116Z,4.80
2023-03-08T04:49:44.708Z,4.50
2023-03-08T04:50:20.853Z,4.80
2023-03-08T04:50:54.574Z,5.33
2023-03-08T04:51:27.435Z,4.80
2023-03-08T04:52:05.225Z,5.10
2023-03-08T04:52:39.939Z,5.30
2023-03-08T04:53:12.188Z,5.20
2023-03-08T04:53:47.533Z,4.60
2023-03-08T04:54:20.529Z,5.10
2023-03-08T04:54:59.143Z,4.53
2023-03-08T04:55:35.551Z,4.20
2023-03-08T04:56:10.578Z,4.40
2023-03-08T04:56:45.616Z,5.03
2023-03-08T04:57:20.931Z,4.70
2023-03-08T04:57:54.493Z,4.57
2023-03-08T04:58:29.912Z,4.73
2023-03-08T04:59:02.413Z,4.87
2023-03-08T04:59:34.791Z,4.83
2023-03-08T05:00:13.371Z,4.80
2023-03-08T05:00:48.161Z,4.53
2023-03-08T05:01:23.155Z,4.80
2023-03-08T05:01:59.090Z,4.80
2023-03-08T05:02:33.557Z,4.90
2023-03-08T05:03:06.380Z,4.73
2023-03-08T05:03:41.335Z,4.87
2023-03-08T05:04:13.687Z,4.93
2023-03-08T05:04:47.684Z,4.97
2023-03-08T05:05:22.683Z,5.03
2023-03-08T05:05:56.304Z,5.17
2023-03-08T05:06:29.329Z,4.83
2023-03-08T05:07:05.567Z,4.93
2023-03-08T05:07:40.468Z,5.10
2023-03-08T05:08:12.905Z,5.00
2023-03-08T05:08:47.914Z,5.03
2023-03-08T05:09:20.174Z,4.70
2023-03-08T05:09:55.634Z,4.90
2023-03-08T05:10:32.052Z,4.53
2023-03-08T05:11:04.973Z,4.60
2023-03-08T05:11:45.164Z,5.47
2023-03-08T05:12:17.591Z,5.27
2023-03-08T05:12:54.965Z,5.27
2023-03-08T05:13:30.668Z,5.47
2023-03-08T05:14:03.002Z,7.00
2023-03-08T05:14:35.345Z,6.03
2023-03-08T05:15:11.310Z,7.77
2023-03-08T05:15:43.823Z,9.30
2023-03-08T05:16:16.082Z,7.90
2023-03-08T05:16:50.992Z,9.70
2023-03-08T05:17:23.357Z,11.13
2023-03-08T05:17:55.913Z,11.23
2023-03-08T05:18:31.080Z,10.43
2023-03-08T05:19:03.384Z,12.00
2023-03-08T05:19:41.269Z,10.93
2023-03-08T05:20:16.889Z,13.60
2023-03-08T05:20:54.933Z,10.97
2023-03-08T05:21:27.783Z,13.33
2023-03-08T05:22:06.944Z,13.90
2023-03-08T05:22:57.236Z,10.03
2023-03-08T05:23:37.492Z,10.90
2023-03-08T05:24:09.837Z,9.20
2023-03-08T05:24:43.642Z,9.20
2023-03-08T05:25:21.037Z,6.80
2023-03-08T05:25:53.926Z,7.70
2023-03-08T05:26:26.216Z,6.93
2023-03-08T05:27:03.819Z,6.40
2023-03-08T05:27:36.085Z,5.87
2023-03-08T05:28:15.846Z,5.40
2023-03-08T05:28:52.128Z,5.13
2023-03-08T05:29:27.466Z,6.10
2023-03-08T05:29:59.745Z,5.90
2023-03-08T05:30:37.537Z,6.03
2023-03-08T05:31:12.780Z,5.77
2023-03-08T05:31:45.657Z,6.53
2023-03-08T05:32:22.450Z,5.90
2023-03-08T05:32:56.089Z,6.00
2023-03-08T05:33:28.423Z,5.90
2023-03-08T05:34:03.381Z,5.80
2023-03-08T05:34:41.061Z,6.20
2023-03-08T05:35:17.054Z,5.73
2023-03-08T05:35:56.546Z,5.97
2023-03-08T05:36:30.042Z,5.63
2023-03-08T05:37:06.344Z,5.57
2023-03-08T05:37:41.060Z,5.60
2023-03-08T05:38:13.361Z,6.30
2023-03-08T05:38:48.967Z,5.40
2023-03-08T05:39:21.329Z,5.87
2023-03-08T05:40:00.907Z,4.93
2023-03-08T05:40:35.794Z,5.93
2023-03-08T05:41:10.955Z,5.90
2023-03-08T05:41:46.061Z,5.53
2023-03-08T05:42:27.579Z,5.40
2023-03-08T05:43:01.005Z,5.47
2023-03-08T05:43:36.255Z,5.50
2023-03-08T05:44:11.172Z,5.30
2023-03-08T05:44:44.988Z,6.77
2023-03-08T05:45:19.291Z,5.23
2023-03-08T05:46:01.073Z,5.97
2023-03-08T05:46:34.559Z,5.13
2023-03-08T05:47:08.296Z,5.50
2023-03-08T05:47:45.226Z,4.73
2023-03-08T05:48:17.455Z,5.73
2023-03-08T05:48:49.730Z,5.30
2023-03-08T05:49:26.245Z,6.57
2023-03-08T05:49:58.817Z,5.00
2023-03-08T05:50:33.072Z,5.63
2023-03-08T05:51:08.720Z,6.03
2023-03-08T05:51:41.027Z,5.00
2023-03-08T05:52:13.307Z,5.50
2023-03-08T05:52:48.483Z,5.60
2023-03-08T05:53:25.682Z,5.70
2023-03-08T05:54:00.596Z,5.57
2023-03-08T05:54:33.323Z,6.37
2023-03-08T05:55:09.947Z,5.80
2023-03-08T05:55:45.533Z,6.10
2023-03-08T05:56:19.979Z,5.67
2023-03-08T05:56:59.461Z,5.70
2023-03-08T05:57:36.922Z,5.80
2023-03-08T05:58:09.156Z,5.17
2023-03-08T05:58:43.678Z,5.70
2023-03-08T05:59:19.838Z,5.67
2023-03-08T05:59:52.330Z,5.60
2023-03-08T06:00:27.730Z,5.10
2023-03-08T06:01:12.068Z,5.10
2023-03-08T06:01:44.391Z,5.87
2023-03-08T06:02:32.009Z,4.97
2023-03-08T06:03:04.399Z,5.47
2023-03-08T06:03:42.443Z,5.50
2023-03-08T06:04:14.922Z,5.20
2023-03-08T06:04:49.011Z,5.03
2023-03-08T06:05:27.406Z,5.30
2023-03-08T06:06:01.942Z,5.80
2023-03-08T06:06:36.823Z,6.00
2023-03-08T06:07:10.629Z,5.20
2023-03-08T06:07:47.552Z,5.33
2023-03-08T06:08:22.834Z,5.50
2023-03-08T06:08:56.444Z,5.23
2023-03-08T06:09:28.859Z,5.80
2023-03-08T06:10:03.849Z,5.60
2023-03-08T06:10:36.152Z,5.57
2023-03-08T06:11:08.988Z,5.77
2023-03-08T06:11:44.605Z,5.50
2023-03-08T06:12:16.920Z,5.60
2023-03-08T06:12:53.790Z,5.63
2023-03-08T06:13:31.970Z,5.63
2023-03-08T06:14:04.300Z,5.67
2023-03-08T06:14:38.572Z,6.20
2023-03-08T06:15:15.366Z,5.40
2023-03-08T06:15:47.610Z,5.80
2023-03-08T06:16:19.890Z,5.60
2023-03-08T06:16:56.076Z,5.83
2023-03-08T06:17:31.126Z,5.63
2023-03-08T06:18:08.151Z,5.93
2023-03-08T06:18:41.662Z,6.00
2023-03-08T06:19:14.986Z,5.73
2023-03-08T06:19:51.100Z,6.60
2023-03-08T06:20:24.694Z,5.57
2023-03-08T06:21:04.616Z,5.50
2023-03-08T06:21:38.869Z,5.67
2023-03-08T06:22:16.019Z,5.23
2023-03-08T06:22:51.627Z,5.40
2023-03-08T06:23:24.532Z,5.40
2023-03-08T06:23:56.816Z,6.20
2023-03-08T06:24:32.423Z,5.53
2023-03-08T06:25:08.773Z,5.63
2023-03-08T06:25:43.990Z,5.67
2023-03-08T06:26:19.911Z,5.63
2023-03-08T06:26:53.114Z,5.43
2023-03-08T06:27:29.095Z,6.03
2023-03-08T06:28:07.148Z,5.77
2023-03-08T06:28:46.251Z,5.73
2023-03-08T06:29:18.930Z,6.80
2023-03-08T06:29:53.765Z,7.77
2023-03-08T06:30:27.386Z,6.97
2023-03-08T06:31:00.233Z,7.40
2023-03-08T06:31:35.197Z,6.40
2023-03-08T06:32:09.663Z,6.90
2023-03-08T06:32:47.106Z,6.80
2023-03-08T06:33:21.077Z,6.80
2023-03-08T06:33:53.330Z,7.20
2023-03-08T06:34:32.001Z,6.77
2023-03-08T06:35:04.776Z,6.80
2023-03-08T06:35:41.642Z,6.27
2023-03-08T06:36:16.066Z,6.67
2023-03-08T06:36:52.096Z,6.30
2023-03-08T06:37:27.709Z,5.87
2023-03-08T06:38:01.158Z,6.27
2023-03-08T06:38:37.674Z,6.00
2023-03-08T06:39:10.409Z,6.00
2023-03-08T06:39:42.902Z,6.17
2023-03-08T06:40:20.921Z,6.27
2023-03-08T06:40:53.199Z,5.77
2023-03-08T06:41:25.717Z,5.10
2023-03-08T06:42:04.213Z,5.80
2023-03-08T06:42:41.474Z,6.00
2023-03-08T06:43:20.873Z,6.37
2023-03-08T06:43:55.871Z,6.00
2023-03-08T06:44:28.421Z,5.90
2023-03-08T06:45:00.669Z,5.20
2023-03-08T06:45:36.631Z,5.23
2023-03-08T06:46:11.138Z,5.40
2023-03-08T06:46:46.063Z,5.87
2023-03-08T06:47:18.316Z,6.03
2023-03-08T06:47:50.782Z,5.93
2023-03-08T06:48:26.056Z,5.17
2023-03-08T06:49:00.123Z,6.77
2023-03-08T06:49:32.414Z,5.70
2023-03-08T06:50:07.911Z,6.00
2023-03-08T06:50:42.511Z,5.43
2023-03-08T06:51:15.220Z,6.33
2023-03-08T06:51:52.817Z,6.00
2023-03-08T06:52:25.092Z,5.53
2023-03-08T06:52:57.873Z,5.33
2023-03-08T06:53:46.089Z,5.33
2023-03-08T06:54:21.421Z,5.57
2023-03-08T06:54:53.720Z,5.60
2023-03-08T06:55:28.744Z,5.90
2023-03-08T06:56:03.218Z,5.63
2023-03-08T06:56:37.484Z,6.23
2023-03-08T06:57:12.350Z,5.30
2023-03-08T06:57:44.592Z,6.17
2023-03-08T06:58:16.873Z,5.83
2023-03-08T06:58:54.293Z,5.90
2023-03-08T06:59:26.549Z,5.70
2023-03-08T06:59:58.802Z,5.40
2023-03-08T07:00:33.665Z,5.47
2023-03-08T07:01:06.356Z,5.70
2023-03-08T07:01:38.648Z,5.77
2023-03-08T07:02:13.712Z,6.70
2023-03-08T07:02:45.973Z,5.17
2023-03-08T07:03:18.207Z,5.83
2023-03-08T07:03:53.541Z,5.80
2023-03-08T07:04:25.872Z,5.40
2023-03-08T07:04:58.140Z,5.50
2023-03-08T07:05:32.986Z,5.70
2023-03-08T07:06:07.266Z,5.30
2023-03-08T07:06:42.084Z,5.60
2023-03-08T07:07:14.377Z,5.33
2023-03-08T07:07:46.622Z,5.70
2023-03-08T07:08:21.465Z,5.53
2023-03-08T07:08:53.800Z,5.30
2023-03-08T07:09:28.688Z,6.17
2023-03-08T07:10:00.994Z,5.17
2023-03-08T07:10:36.580Z,5.30
2023-03-08T07:11:09.981Z,5.50
2023-03-08T07:11:44.838Z,5.50
2023-03-08T07:12:17.197Z,6.07
2023-03-08T07:12:51.451Z,5.97
2023-03-08T07:13:26.335Z,5.73
2023-03-08T07:14:01.231Z,5.97
2023-03-08T07:14:36.140Z,5.70
2023-03-08T07:15:09.358Z,6.40
2023-03-08T07:15:41.652Z,6.40
2023-03-08T07:16:17.060Z,6.33
2023-03-08T07:16:49.332Z,6.00
2023-03-08T07:17:21.590Z,6.20
2023-03-08T07:17:58.521Z,6.50
2023-03-08T07:18:30.829Z,6.10
2023-03-08T07:19:05.888Z,5.93
2023-03-08T07:19:38.345Z,6.13
2023-03-08T07:20:13.147Z,5.67
2023-03-08T07:20:48.137Z,6.37
2023-03-08T07:21:20.423Z,6.80
2023-03-08T07:21:52.649Z,6.60
2023-03-08T07:22:27.526Z,6.37
2023-03-08T07:23:01.969Z,6.67
2023-03-08T07:23:36.828Z,6.10
2023-03-08T07:24:09.914Z,6.90
2023-03-08T07:24:42.158Z,6.47
2023-03-08T07:25:18.712Z,5.90
2023-03-08T07:25:51.020Z,6.10
2023-03-08T07:26:23.513Z,6.50
2023-03-08T07:26:58.360Z,6.17
2023-03-08T07:27:30.584Z,6.23
2023-03-08T07:28:02.834Z,6.00
2023-03-08T07:28:37.711Z,6.20
2023-03-08T07:29:12.973Z,6.07
2023-03-08T07:29:47.816Z,6.57
2023-03-08T07:30:20.598Z,5.80
2023-03-08T07:30:53.724Z,6.07
2023-03-08T07:31:29.140Z,5.80
2023-03-08T07:32:01.476Z,5.83
2023-03-08T07:32:33.814Z,6.00
2023-03-08T07:33:08.724Z,6.00
2023-03-08T07:33:41.021Z,5.87
2023-03-08T07:34:13.242Z,6.70
2023-03-08T07:34:48.081Z,5.97
2023-03-08T07:35:20.390Z,5.83
2023-03-08T07:35:52.625Z,6.50
2023-03-08T07:36:27.802Z,6.30
2023-03-08T07:37:00.046Z,6.13
2023-03-08T07:37:32.354Z,5.70
2023-03-08T07:38:07.250Z,5.50
2023-03-08T07:38:39.477Z,6.10
2023-03-08T07:39:14.319Z,6.30
2023-03-08T07:39:46.673Z,6.47
2023-03-08T07:40:19.390Z,5.73
2023-03-08T07:40:57.855Z,6.27
2023-03-08T07:41:32.068Z,6.20
2023-03-08T07:42:07.653Z,5.60
2023-03-08T07:42:39.892Z,6.13
2023-03-08T07:43:34.949Z,6.13